createdAt,value
2023-04-12T00:02:06.865Z,98748.58
2023-04-12T00:04:36.217Z,98741.54
2023-04-12T00:07:06.257Z,98740.42
2023-04-12T00:09:36.610Z,98741.00
2023-04-12T00:12:06.373Z,98742.09
2023-04-12T00:14:34.973Z,98738.05
2023-04-12T00:17:03.661Z,98738.33
2023-04-12T00:19:32.141Z,98740.14
2023-04-12T00:22:05.264Z,98736.48
2023-04-12T00:24:34.153Z,98731.92
2023-04-12T00:27:02.814Z,98733.39
2023-04-12T00:29:37.413Z,98731.13
2023-04-12T00:32:07.081Z,98723.77
2023-04-12T00:34:35.824Z,98726.52
2023-04-12T00:37:04.300Z,98723.68
2023-04-12T00:39:33.348Z,98724.75
2023-04-12T00:42:09.204Z,98719.19
2023-04-12T00:44:37.841Z,98717.57
2023-04-12T00:47:07.090Z,98713.96
2023-04-12T00:49:38.108Z,98712.60
2023-04-12T00:52:08.840Z,98710.04
2023-04-12T00:54:42.603Z,98706.83
2023-04-12T00:57:13.876Z,98706.21
2023-04-12T00:59:42.262Z,98705.13
2023-04-12T01:02:10.626Z,98704.64
2023-04-12T01:04:44.265Z,98698.78
2023-04-12T01:07:25.809Z,98700.16
2023-04-12T01:10:08.630Z,98695.57
2023-04-12T01:12:39.491Z,98696.50
2023-04-12T01:15:13.345Z,98694.23
2023-04-12T01:18:15.214Z,98688.48
2023-04-12T01:21:07.209Z,98684.33
2023-04-12T01:23:45.257Z,98683.63
2023-04-12T01:26:37.336Z,98674.95
2023-04-12T01:29:11.158Z,98672.55
2023-04-12T01:31:50.992Z,98667.15
2023-04-12T01:34:21.307Z,98661.02
2023-04-12T01:36:49.827Z,98657.00
2023-04-12T01:39:18.213Z,98654.58
2023-04-12T01:41:49.264Z,98648.78
2023-04-12T01:44:18.160Z,98645.15
2023-04-12T01:46:47.726Z,98642.87
2023-04-12T01:49:16.558Z,98640.14
2023-04-12T01:52:07.813Z,98634.31
2023-04-12T01:54:38.287Z,98632.20
2023-04-12T01:57:09.401Z,98626.51
2023-04-12T01:59:41.155Z,98626.79
2023-04-12T02:02:13.779Z,98626.84
2023-04-12T02:04:43.033Z,98616.39
2023-04-12T02:07:12.272Z,98614.74
2023-04-12T02:09:52.355Z,98612.29
2023-04-12T02:12:23.266Z,98604.61
2023-04-12T02:14:52.311Z,98603.64
2023-04-12T02:17:25.482Z,98601.85
2023-04-12T02:19:57.936Z,98598.86
2023-04-12T02:22:26.473Z,98597.90
2023-04-12T02:25:01.641Z,98596.63
2023-04-12T02:27:30.558Z,98593.09
2023-04-12T02:29:59.863Z,98592.12
2023-04-12T02:32:31.211Z,98593.67
2023-04-12T02:35:00.565Z,98592.31
2023-04-12T02:37:29.445Z,98588.17
2023-04-12T02:39:59.222Z,98583.02
2023-04-12T02:42:27.803Z,98587.84
2023-04-12T02:44:56.467Z,98586.60
2023-04-12T02:47:29.470Z,98583.56
2023-04-12T02:49:59.553Z,98580.24
2023-04-12T02:52:30.106Z,98574.34
2023-04-12T02:55:03.946Z,98570.31
2023-04-12T02:57:32.375Z,98571.14
2023-04-12T03:00:15.422Z,98568.93
2023-04-12T03:03:03.355Z,98568.61
2023-04-12T03:05:32.792Z,98565.63
2023-04-12T03:08:01.891Z,98566.53
2023-04-12T03:10:43.126Z,98560.70
2023-04-12T03:13:11.703Z,98562.70
2023-04-12T03:15:48.474Z,98560.65
2023-04-12T03:18:21.856Z,98560.88
2023-04-12T03:20:52.723Z,98557.79
2023-04-12T03:23:22.132Z,98556.98
2023-04-12T03:25:57.060Z,98559.95
2023-04-12T03:28:39.397Z,98553.84
2023-04-12T03:31:08.618Z,98554.52
2023-04-12T03:33:47.215Z,98552.11
2023-04-12T03:36:24.170Z,98552.02
2023-04-12T03:39:04.815Z,98545.86
2023-04-12T03:41:39.093Z,98550.54
2023-04-12T03:46:12.074Z,98541.79
2023-04-12T03:48:41.363Z,98540.27
2023-04-12T03:51:12.400Z,98539.09
2023-04-12T03:53:44.964Z,98535.28
2023-04-12T03:56:16.882Z,98540.46
2023-04-12T03:58:47.973Z,98537.97
2023-04-12T04:01:18.118Z,98541.20
2023-04-12T04:03:48.595Z,98541.86
2023-04-12T04:06:24.841Z,98539.73
2023-04-12T04:08:57.744Z,98534.76
2023-04-12T04:11:28.059Z,98540.70
2023-04-12T04:14:01.444Z,98538.21
2023-04-12T04:16:31.292Z,98537.33
2023-04-12T04:19:01.063Z,98539.77
2023-04-12T04:21:30.818Z,98541.48
2023-04-12T04:24:01.289Z,98539.23
2023-04-12T04:26:34.033Z,98534.23
2023-04-12T04:29:12.125Z,98537.94
2023-04-12T04:31:41.058Z,98537.06
2023-04-12T04:34:13.841Z,98538.73
2023-04-12T04:36:45.478Z,98535.56
2023-04-12T04:39:16.183Z,98528.77
2023-04-12T04:41:46.995Z,98537.44
2023-04-12T04:44:23.566Z,98534.53
2023-04-12T04:46:59.336Z,98535.45
2023-04-12T04:49:34.050Z,98533.89
2023-04-12T04:52:21.486Z,98537.61
2023-04-12T04:54:50.136Z,98537.79
2023-04-12T04:57:22.990Z,98533.30
2023-04-12T04:59:51.940Z,98535.52
2023-04-12T05:02:21.624Z,98534.83
2023-04-12T05:04:51.538Z,98533.79
2023-04-12T05:07:23.853Z,98535.49
2023-04-12T05:09:52.687Z,98536.45
2023-04-12T05:12:26.634Z,98532.56
2023-04-12T05:15:10.619Z,98531.92
2023-04-12T05:17:39.928Z,98527.40
2023-04-12T05:20:11.370Z,98529.85
2023-04-12T05:22:40.662Z,98532.15
2023-04-12T05:25:09.482Z,98524.79
2023-04-12T05:27:44.438Z,98522.58
2023-04-12T05:30:15.794Z,98521.78
2023-04-12T05:32:48.053Z,98522.70
2023-04-12T05:35:18.441Z,98517.17
2023-04-12T05:37:47.185Z,98517.23
2023-04-12T05:40:16.446Z,98514.19
2023-04-12T05:42:46.299Z,98507.58
2023-04-12T05:45:16.196Z,98504.83
2023-04-12T05:47:45.908Z,98503.02
2023-04-12T05:50:14.931Z,98506.19
2023-04-12T05:52:44.768Z,98503.36
2023-04-12T05:55:15.092Z,98495.79
2023-04-12T05:57:45.045Z,98498.12
2023-04-12T06:00:18.155Z,98497.18
2023-04-12T06:02:48.203Z,98498.09
2023-04-12T06:05:18.117Z,98494.17
2023-04-12T06:07:48.549Z,98491.57
2023-04-12T06:10:17.676Z,98492.12
2023-04-12T06:12:49.867Z,98493.59
2023-04-12T06:15:22.411Z,98489.85
2023-04-12T06:17:57.762Z,98488.21
2023-04-12T06:20:26.460Z,98487.38
2023-04-12T06:22:57.624Z,98488.45
2023-04-12T06:25:27.834Z,98480.41
2023-04-12T06:28:04.706Z,98484.06
2023-04-12T06:30:36.686Z,98482.91
2023-04-12T06:33:05.254Z,98478.94
2023-04-12T06:35:34.161Z,98475.21
2023-04-12T06:38:03.577Z,98476.31
2023-04-12T06:40:41.184Z,98473.70
2023-04-12T06:43:10.060Z,98470.41
2023-04-12T06:45:38.392Z,98472.77
2023-04-12T06:48:07.047Z,98471.06
2023-04-12T06:50:35.959Z,98474.80
2023-04-12T06:53:04.578Z,98472.11
2023-04-12T06:55:33.324Z,98471.38
2023-04-12T06:58:01.808Z,98475.77
2023-04-12T07:00:32.462Z,98474.82
2023-04-12T07:03:01.850Z,98468.33
2023-04-12T07:05:30.557Z,98468.46
2023-04-12T07:08:00.474Z,98467.23
2023-04-12T07:10:30.086Z,98464.48
2023-04-12T07:13:03.281Z,98463.42
2023-04-12T07:15:33.509Z,98460.86
2023-04-12T07:18:02.594Z,98461.59
2023-04-12T07:20:31.644Z,98456.83
2023-04-12T07:23:01.211Z,98457.64
2023-04-12T07:25:29.616Z,98455.88
2023-04-12T07:27:59.001Z,98454.34
2023-04-12T07:30:27.555Z,98453.92
2023-04-12T07:33:05.282Z,98454.31
2023-04-12T07:35:42.984Z,98451.70
2023-04-12T07:38:11.551Z,98453.98
2023-04-12T07:40:39.846Z,98449.88
2023-04-12T07:43:11.203Z,98449.55
2023-04-12T07:45:40.374Z,98454.43
2023-04-12T07:48:08.851Z,98453.63
2023-04-12T07:50:39.980Z,98454.71
2023-04-12T07:53:27.934Z,98453.17
2023-04-12T07:55:56.581Z,98452.19
2023-04-12T07:58:25.672Z,98454.53
2023-04-12T08:00:54.716Z,98453.63
2023-04-12T08:03:23.385Z,98455.28
2023-04-12T08:05:53.870Z,98450.69
2023-04-12T08:08:26.454Z,98449.71
2023-04-12T08:10:55.518Z,98450.56
2023-04-12T08:13:23.999Z,98449.92
2023-04-12T08:15:55.582Z,98449.23
2023-04-12T08:18:24.453Z,98444.83
2023-04-12T08:20:52.881Z,98443.79
2023-04-12T08:23:24.202Z,98446.23
2023-04-12T08:25:59.549Z,98440.59
2023-04-12T08:28:29.102Z,98440.80
2023-04-12T08:30:59.578Z,98435.52
2023-04-12T08:33:28.101Z,98441.91
2023-04-12T08:35:56.908Z,98435.90
2023-04-12T08:38:41.447Z,98440.50
2023-04-12T08:41:14.841Z,98433.72
2023-04-12T08:43:47.911Z,98429.70
2023-04-12T08:46:16.502Z,98431.14
2023-04-12T08:48:49.872Z,98426.92
2023-04-12T08:51:19.600Z,98425.27
2023-04-12T08:53:48.681Z,98423.77
2023-04-12T08:56:22.148Z,98421.64
2023-04-12T08:58:51.390Z,98419.57
2023-04-12T09:01:21.345Z,98422.52
2023-04-12T09:03:52.188Z,98417.56
2023-04-12T09:06:21.067Z,98412.20
2023-04-12T09:08:56.933Z,98411.39
2023-04-12T09:11:31.426Z,98409.18
2023-04-12T09:14:01.505Z,98405.73
2023-04-12T09:16:42.836Z,98402.41
2023-04-12T09:19:12.735Z,98399.23
2023-04-12T09:21:55.867Z,98399.70
2023-04-12T09:24:24.705Z,98398.25
2023-04-12T09:27:03.035Z,98392.67
2023-04-12T09:29:31.643Z,98395.27
2023-04-12T09:32:06.281Z,98396.11
2023-04-12T09:34:36.309Z,98395.84
2023-04-12T09:37:17.187Z,98394.31
2023-04-12T09:40:01.590Z,98392.78
2023-04-12T09:42:33.732Z,98391.95
2023-04-12T09:45:23.083Z,98390.42
2023-04-12T09:47:52.695Z,98393.33
2023-04-12T09:50:26.784Z,98392.16
2023-04-12T09:52:58.731Z,98393.27
2023-04-12T09:55:30.023Z,98393.44
2023-04-12T09:58:00.708Z,98394.85
2023-04-12T10:00:32.316Z,98393.16
2023-04-12T10:03:02.128Z,98392.72
2023-04-12T10:05:31.495Z,98393.31
2023-04-12T10:08:00.453Z,98387.98
2023-04-12T10:10:32.020Z,98391.17
2023-04-12T10:13:00.592Z,98388.11
2023-04-12T10:15:37.486Z,98390.11
2023-04-12T10:18:09.459Z,98384.63
2023-04-12T10:20:39.353Z,98383.57
2023-04-12T10:23:07.910Z,98386.53
2023-04-12T10:25:43.021Z,98385.27
2023-04-12T10:28:16.637Z,98384.92
2023-04-12T10:30:49.799Z,98382.87
2023-04-12T10:33:33.563Z,98383.80
2023-04-12T10:36:12.438Z,98384.23
2023-04-12T10:39:08.520Z,98387.64
2023-04-12T10:41:38.475Z,98385.84
2023-04-12T10:44:27.322Z,98385.77
2023-04-12T10:46:56.062Z,98384.77
2023-04-12T10:49:25.107Z,98383.46
2023-04-12T10:52:01.185Z,98384.47
2023-04-12T10:54:32.125Z,98386.80
2023-04-12T10:57:00.866Z,98387.09
2023-04-12T10:59:59.676Z,98384.45
2023-04-12T11:02:28.947Z,98387.41
2023-04-12T11:05:10.049Z,98384.46
2023-04-12T11:08:16.731Z,98388.10
2023-04-12T11:11:03.418Z,98383.27
2023-04-12T11:13:36.903Z,98381.85
2023-04-12T11:16:07.930Z,98382.76
2023-04-12T11:18:36.858Z,98379.98
2023-04-12T11:21:05.964Z,98381.55
2023-04-12T11:23:43.597Z,98378.38
2023-04-12T11:26:12.122Z,98379.11
2023-04-12T11:28:40.749Z,98376.89
2023-04-12T11:31:09.337Z,98374.13
2023-04-12T11:33:41.634Z,98372.70
2023-04-12T11:36:14.371Z,98375.01
2023-04-12T11:38:44.119Z,98377.58
2023-04-12T11:41:14.609Z,98373.69
2023-04-12T11:43:44.790Z,98374.49
2023-04-12T11:46:13.155Z,98373.92
2023-04-12T11:48:48.034Z,98373.69
2023-04-12T11:51:29.901Z,98374.12
2023-04-12T11:54:01.252Z,98371.02
2023-04-12T11:56:29.760Z,98370.85
2023-04-12T11:58:58.315Z,98366.49
2023-04-12T12:01:28.562Z,98368.20
2023-04-12T12:03:57.497Z,98365.89
2023-04-12T12:06:27.486Z,98364.39
2023-04-12T12:08:56.293Z,98361.84
2023-04-12T12:11:26.808Z,98361.66
2023-04-12T12:13:57.017Z,98363.34
2023-04-12T12:16:29.590Z,98361.29
2023-04-12T12:18:59.908Z,98357.50
2023-04-12T12:21:28.871Z,98357.73
2023-04-12T12:23:57.803Z,98352.55
2023-04-12T12:26:28.516Z,98347.69
2023-04-12T12:28:57.932Z,98348.88
2023-04-12T12:31:28.885Z,98345.06
2023-04-12T12:33:59.971Z,98343.83
2023-04-12T12:36:32.893Z,98342.14
2023-04-12T12:39:10.700Z,98344.10
2023-04-12T12:41:39.988Z,98341.12
2023-04-12T12:44:15.462Z,98340.55
2023-04-12T12:46:55.182Z,98332.83
2023-04-12T12:49:23.873Z,98336.31
2023-04-12T12:51:55.097Z,98335.31
2023-04-12T12:54:39.602Z,98334.27
2023-04-12T12:57:09.869Z,98331.70
2023-04-12T12:59:38.360Z,98329.53
2023-04-12T13:02:07.947Z,98327.44
2023-04-12T13:04:39.716Z,98324.77
2023-04-12T13:07:09.084Z,98322.95
2023-04-12T13:09:37.729Z,98327.33
2023-04-12T13:12:11.055Z,98325.89
2023-04-12T13:14:42.014Z,98324.88
2023-04-12T13:17:10.550Z,98327.98
2023-04-12T13:19:47.884Z,98327.25
2023-04-12T13:22:16.934Z,98328.48
2023-04-12T13:24:45.446Z,98322.22
2023-04-12T13:27:22.400Z,98325.73
2023-04-12T13:29:51.730Z,98326.34
2023-04-12T13:32:20.469Z,98329.23
2023-04-12T13:34:49.406Z,98326.35
2023-04-12T13:37:17.893Z,98331.83
2023-04-12T13:39:46.973Z,98329.81
2023-04-12T13:42:15.378Z,98328.45
2023-04-12T13:44:43.806Z,98327.71
2023-04-12T13:47:19.051Z,98328.93
2023-04-12T13:49:47.498Z,98335.67
2023-04-12T13:52:15.837Z,98338.48
2023-04-12T13:54:47.699Z,98338.52
2023-04-12T13:57:16.502Z,98337.34
2023-04-12T13:59:50.815Z,98340.41
2023-04-12T14:02:19.821Z,98341.73
2023-04-12T14:04:53.044Z,98344.60
2023-04-12T14:07:21.825Z,98347.08
2023-04-12T14:09:51.455Z,98353.30
2023-04-12T14:12:22.014Z,98349.70
2023-04-12T14:14:51.234Z,98357.29
2023-04-12T14:17:19.660Z,98357.81
2023-04-12T14:19:48.110Z,98360.13
2023-04-12T14:22:16.825Z,98360.40
2023-04-12T14:24:48.710Z,98361.20
2023-04-12T14:27:18.113Z,98361.98
2023-04-12T14:29:46.686Z,98363.13
2023-04-12T14:32:16.666Z,98355.07
2023-04-12T14:34:46.983Z,98355.60
2023-04-12T14:37:16.518Z,98357.73
2023-04-12T14:39:45.670Z,98357.09
2023-04-12T14:42:14.433Z,98359.58
2023-04-12T14:44:45.579Z,98359.20
2023-04-12T14:47:15.422Z,98360.65
2023-04-12T14:49:44.030Z,98360.15
2023-04-12T14:52:16.800Z,98364.21
2023-04-12T14:54:46.280Z,98369.17
2023-04-12T14:57:15.624Z,98366.44
2023-04-12T14:59:45.916Z,98366.28
2023-04-12T15:02:14.550Z,98362.59
2023-04-12T15:04:43.109Z,98361.16
2023-04-12T15:07:13.360Z,98360.37
2023-04-12T15:09:46.233Z,98355.34
2023-04-12T15:12:14.742Z,98353.71
2023-04-12T15:14:47.599Z,98356.70
2023-04-12T15:17:19.930Z,98349.75
2023-04-12T15:19:48.669Z,98350.33
2023-04-12T15:22:21.250Z,98348.30
2023-04-12T15:24:51.041Z,98346.46
2023-04-12T15:27:19.375Z,98344.89
2023-04-12T15:29:49.234Z,98346.79
2023-04-12T15:32:18.466Z,98344.05
2023-04-12T15:34:47.200Z,98346.49
2023-04-12T15:37:16.111Z,98341.96
2023-04-12T15:39:48.650Z,98345.43
2023-04-12T15:42:17.389Z,98346.99
2023-04-12T15:44:46.200Z,98343.54
2023-04-12T15:47:14.532Z,98342.23
2023-04-12T15:49:43.249Z,98344.10
2023-04-12T15:52:13.083Z,98347.38
2023-04-12T15:54:43.847Z,98347.55
2023-04-12T15:57:12.877Z,98348.68
2023-04-12T16:02:28.960Z,98352.98
2023-04-12T16:04:57.936Z,98347.21
2023-04-12T16:07:26.592Z,98341.30
2023-04-12T16:09:55.205Z,98339.55
2023-04-12T16:12:24.404Z,98336.41
2023-04-12T16:14:52.970Z,98336.26
2023-04-12T16:17:23.151Z,98335.35
2023-04-12T16:19:52.110Z,98336.19
2023-04-12T16:22:20.545Z,98337.90
2023-04-12T16:24:52.786Z,98341.29
2023-04-12T16:27:23.567Z,98341.95
2023-04-12T16:29:52.037Z,98343.66
2023-04-12T16:32:22.849Z,98341.48
2023-04-12T16:34:52.256Z,98349.85
2023-04-12T16:37:20.767Z,98349.45
2023-04-12T16:39:51.629Z,98350.59
2023-04-12T16:42:22.361Z,98349.69
2023-04-12T16:44:52.055Z,98351.55
2023-04-12T16:47:22.368Z,98353.29
2023-04-12T16:49:51.298Z,98353.66
2023-04-12T16:52:19.524Z,98354.30
2023-04-12T16:54:47.903Z,98359.73
2023-04-12T16:57:18.234Z,98358.42
2023-04-12T16:59:48.582Z,98358.59
2023-04-12T17:02:20.521Z,98358.52
2023-04-12T17:04:48.961Z,98358.35
2023-04-12T17:07:17.871Z,98360.15
2023-04-12T17:09:46.762Z,98359.64
2023-04-12T17:12:15.073Z,98363.22
2023-04-12T17:14:43.829Z,98361.88
2023-04-12T17:17:15.130Z,98366.02
2023-04-12T17:19:45.202Z,98364.15
2023-04-12T17:22:13.510Z,98365.42
2023-04-12T17:24:44.681Z,98368.44
2023-04-12T17:27:13.464Z,98372.77
2023-04-12T17:29:41.709Z,98374.54
2023-04-12T17:32:18.803Z,98377.42
2023-04-12T17:34:47.798Z,98375.48
2023-04-12T17:37:16.621Z,98377.52
2023-04-12T17:39:49.049Z,98380.80
2023-04-12T17:42:18.468Z,98383.13
2023-04-12T17:44:47.619Z,98386.36
2023-04-12T17:47:16.692Z,98389.55
2023-04-12T17:49:45.586Z,98387.55
2023-04-12T17:52:14.642Z,98387.95
2023-04-12T17:54:43.405Z,98385.06
2023-04-12T17:57:12.307Z,98384.55
2023-04-12T17:59:40.519Z,98384.89
2023-04-12T18:02:09.412Z,98383.08
2023-04-12T18:04:38.883Z,98377.27
2023-04-12T18:07:09.835Z,98373.46
2023-04-12T18:09:38.652Z,98373.11
2023-04-12T18:12:07.984Z,98371.67
2023-04-12T18:14:37.207Z,98368.80
2023-04-12T18:17:09.131Z,98368.42
2023-04-12T18:19:37.870Z,98366.59
2023-04-12T18:22:06.984Z,98363.23
2023-04-12T18:24:36.498Z,98360.09
2023-04-12T18:27:07.918Z,98356.29
2023-04-12T18:29:37.249Z,98353.27
2023-04-12T18:32:05.781Z,98356.00
2023-04-12T18:34:34.419Z,98354.40
2023-04-12T18:37:04.340Z,98353.36
2023-04-12T18:39:34.692Z,98350.30
2023-04-12T18:42:04.531Z,98348.03
2023-04-12T18:44:34.831Z,98350.42
2023-04-12T18:47:03.651Z,98346.23
2023-04-12T18:49:32.629Z,98345.92
2023-04-12T18:52:01.289Z,98344.40
2023-04-12T18:54:30.354Z,98342.01
2023-04-12T18:57:02.212Z,98347.39
2023-04-12T18:59:30.935Z,98349.65
2023-04-12T19:02:04.983Z,98352.59
2023-04-12T19:04:34.249Z,98349.96
2023-04-12T19:07:02.656Z,98351.20
2023-04-12T19:09:31.080Z,98349.60
2023-04-12T19:11:59.517Z,98348.60
2023-04-12T19:14:30.705Z,98349.88
2023-04-12T19:16:59.346Z,98350.36
2023-04-12T19:19:30.644Z,98350.88
2023-04-12T19:21:59.053Z,98350.44
2023-04-12T19:24:28.048Z,98351.63
2023-04-12T19:26:57.722Z,98349.89
2023-04-12T19:29:26.277Z,98354.44
2023-04-12T19:31:55.476Z,98351.93
2023-04-12T19:34:24.928Z,98349.75
2023-04-12T19:36:53.743Z,98347.11
2023-04-12T19:39:24.221Z,98343.91
2023-04-12T19:41:53.048Z,98344.69
2023-04-12T19:44:23.331Z,98345.63
2023-04-12T19:46:53.026Z,98345.56
2023-04-12T19:49:22.354Z,98344.05
2023-04-12T19:51:51.048Z,98351.00
2023-04-12T19:54:23.533Z,98344.88
2023-04-12T19:56:53.616Z,98348.51
2023-04-12T19:59:22.124Z,98342.14
2023-04-12T20:01:52.626Z,98343.89
2023-04-12T20:04:21.948Z,98347.27
2023-04-12T20:06:52.417Z,98351.71
2023-04-12T20:09:24.272Z,98356.08
2023-04-12T20:11:53.095Z,98357.27
2023-04-12T20:14:22.380Z,98356.64
2023-04-12T20:16:56.046Z,98355.15
2023-04-12T20:19:25.550Z,98351.14
2023-04-12T20:22:01.952Z,98352.55
2023-04-12T20:24:33.968Z,98352.36
2023-04-12T20:27:02.558Z,98352.52
2023-04-12T20:29:33.432Z,98356.25
2023-04-12T20:32:02.642Z,98357.70
2023-04-12T20:34:32.617Z,98356.46
2023-04-12T20:37:01.305Z,98358.84
2023-04-12T20:39:30.680Z,98359.91
2023-04-12T20:42:01.567Z,98361.38
2023-04-12T20:44:30.386Z,98356.50
2023-04-12T20:47:02.898Z,98353.77
2023-04-12T20:49:32.117Z,98354.80
2023-04-12T20:52:00.701Z,98350.21
2023-04-12T20:54:33.474Z,98351.58
2023-04-12T20:57:04.455Z,98350.67
2023-04-12T20:59:37.108Z,98351.38
2023-04-12T21:02:06.344Z,98354.09
2023-04-12T21:04:36.563Z,98351.00
2023-04-12T21:07:08.445Z,98345.80
2023-04-12T21:09:38.466Z,98344.94
2023-04-12T21:12:08.828Z,98351.16
2023-04-12T21:14:50.377Z,98352.40
2023-04-12T21:17:22.596Z,98350.08
2023-04-12T21:19:51.502Z,98349.51
2023-04-12T21:22:25.360Z,98351.73
2023-04-12T21:24:53.688Z,98351.39
2023-04-12T21:27:22.223Z,98349.11
2023-04-12T21:29:52.270Z,98348.58
2023-04-12T21:32:20.701Z,98347.63
2023-04-12T21:34:50.289Z,98351.65
2023-04-12T21:37:18.640Z,98351.02
2023-04-12T21:39:47.609Z,98354.29
2023-04-12T21:42:16.443Z,98354.86
2023-04-12T21:44:45.069Z,98355.69
2023-04-12T21:47:13.400Z,98357.38
2023-04-12T21:49:41.648Z,98360.02
2023-04-12T21:52:10.149Z,98363.27
2023-04-12T21:54:39.656Z,98361.14
2023-04-12T21:57:08.359Z,98359.67
2023-04-12T21:59:38.045Z,98363.19
2023-04-12T22:02:07.317Z,98360.31
2023-04-12T22:04:36.005Z,98357.60
2023-04-12T22:07:12.601Z,98355.83
2023-04-12T22:09:41.633Z,98355.10
2023-04-12T22:12:10.080Z,98355.20
2023-04-12T22:14:47.170Z,98350.49
2023-04-12T22:17:17.652Z,98344.98
2023-04-12T22:19:46.464Z,98343.44
2023-04-12T22:22:16.380Z,98345.41
2023-04-12T22:24:44.984Z,98342.10
2023-04-12T22:27:16.430Z,98346.15
2023-04-12T22:29:44.800Z,98342.63
2023-04-12T22:32:13.980Z,98336.31
2023-04-12T22:34:42.535Z,98338.45
2023-04-12T22:37:12.120Z,98340.88
2023-04-12T22:39:40.603Z,98330.94
2023-04-12T22:42:08.836Z,98324.13
2023-04-12T22:44:40.382Z,98329.02
2023-04-12T22:47:10.030Z,98324.83
2023-04-12T22:49:45.294Z,98322.39
2023-04-12T22:52:14.646Z,98320.42
2023-04-12T22:54:44.085Z,98321.54
2023-04-12T22:57:13.270Z,98319.58
2023-04-12T22:59:42.654Z,98322.33
2023-04-12T23:02:11.108Z,98320.52
2023-04-12T23:04:40.617Z,98319.52
2023-04-12T23:07:12.787Z,98313.33
2023-04-12T23:09:41.473Z,98310.20
2023-04-12T23:12:09.788Z,98309.82
2023-04-12T23:14:40.283Z,98306.02
2023-04-12T23:17:08.633Z,98305.31
2023-04-12T23:19:37.175Z,98299.41
2023-04-12T23:22:06.257Z,98296.04
2023-04-12T23:24:37.158Z,98294.73
2023-04-12T23:27:05.597Z,98291.70
2023-04-12T23:29:35.237Z,98291.56
2023-04-12T23:32:06.299Z,98290.77
2023-04-12T23:34:35.453Z,98286.48
2023-04-12T23:37:03.911Z,98282.44
2023-04-12T23:39:33.031Z,98285.92
2023-04-12T23:42:01.567Z,98278.08
2023-04-12T23:44:33.611Z,98272.23
2023-04-12T23:47:02.218Z,98270.23
2023-04-12T23:49:30.962Z,98264.92
2023-04-12T23:52:02.669Z,98268.33
2023-04-12T23:54:31.888Z,98270.59
2023-04-12T23:57:01.435Z,98280.61
2023-04-12T23:59:31.402Z,98286.79
